This is the latest recevied weather packets stored in our database for station/object KC2BRB-1. If no packets are shown the sender has not sent any weather packets the latest 1 day(s).
| Time | Temp. | Humidity | Pressure | Rain* | Wind** | Luminosity | Snow |
|---|---|---|---|---|---|---|---|
| 1777993635 | 28.33° C | 63% | 1014.2 hPa | 0 mm | 0 m/s | - | - |
| 1777993335 | 27.78° C | 62% | 1014.2 hPa | 0 mm | 0 m/s | - | - |
| 1777993211 | 27.78° C | 62% | 1014.2 hPa | 0 mm | 0 m/s | - | - |
| 1777993046 | 27.78° C | 62% | 1014.2 hPa | 0 mm | 0 m/s | - | - |
| 1777992892 | 26.67° C | 66% | 1014.2 hPa | 0 mm | 0 m/s | - | - |
| 1777992842 | 26.67° C | 66% | 1014.2 hPa | 0 mm | 0 m/s | - | - |
| 1777992735 | 26.67° C | 66% | 1014.2 hPa | 0 mm | 0 m/s | - | - |
| 1777992310 | 26.67° C | 66% | 1014.1 hPa | 0 mm | 0 m/s | - | - |
| 1777992135 | 26.67° C | 66% | 1014.1 hPa | 0 mm | 0 m/s | - | - |
| 1777991919 | 26.67° C | 66% | 1014.1 hPa | 0 mm | 0 m/s | - | - |
| 1777991835 | 26.67° C | 66% | 1014.1 hPa | 0 mm | 0 m/s | - | - |
| 1777991535 | 26.67° C | 68% | 1014 hPa | 0 mm | 0 m/s | - | - |
| 1777991106 | 26.11° C | 68% | 1014 hPa | 0 mm | 0 m/s | - | - |
| 1777990935 | 26.11° C | 68% | 1014 hPa | 0 mm | 0 m/s | - | - |
| 1777990635 | 26.11° C | 68% | 1014 hPa | 0 mm | 0 m/s | - | - |
| 1777990443 | 26.11° C | 71% | 1013.9 hPa | 0 mm | 0 m/s | - | - |
| 1777990335 | 26.11° C | 71% | 1013.9 hPa | 0 mm | 0 m/s | - | - |
| 1777990044 | 26.11° C | 71% | 1013.9 hPa | 0 mm | 0 m/s | - | - |
| 1777989735 | 25.56° C | 72% | 1014 hPa | 0 mm | 0 m/s | - | - |
| 1777989435 | 25.56° C | 72% | 1014 hPa | 0 mm | 0 m/s | - | - |
| 1777989322 | 25° C | 74% | 1014 hPa | 0 mm | 0 m/s | - | - |
| 1777989135 | 25° C | 74% | 1014 hPa | 0 mm | 0 m/s | - | - |
| 1777988728 | 23.89° C | 76% | 1014.1 hPa | 0 mm | 0 m/s | - | - |
| 1777988535 | 23.89° C | 76% | 1014.1 hPa | 0 mm | 0 m/s | - | - |
| 1777988235 | 23.89° C | 76% | 1014.1 hPa | 0 mm | 0 m/s | - | - |
* Rain latest hour (hover to see other rain measurements)
** Current wind speed in m/s (hover to see current wind gust speed)